Time;durP1;ratioP1;P1;durP2;ratioP2;P2;SDS_P1;SDS_P2;PMS_P1;PMS_P2;Temp;Humidity;BMP_temperature;BMP_pressure;BME280_temperature;BME280_humidity;BME280_pressure;Samples;Min_cycle;Max_cycle;Signal;HPM_P1;HPM_P2
2022/11/28 02:22:44;;;;;;;14.35;8.20;;;;;;;;;;6289872;22;20007;-82
2022/11/28 02:25:53;;;;;;;15.65;8.60;;;;;;;;;;6295853;22;20008;-81
2022/11/28 02:28:22;;;;;;;14.80;8.90;;;;;;;;;;6115723;23;20102;-81
2022/11/28 02:31:07;;;;;;;13.75;8.23;;;;;;;;;;6142887;23;20037;-83
2022/11/28 02:33:59;;;;;;;20.55;8.70;;;;;;;;;;6217877;22;20011;-82
2022/11/28 03:02:46;;;;;;;13.27;8.00;;;;;;;;;;6222466;22;20012;-81
2022/11/28 03:08:40;;;;;;;13.82;8.35;;;;;;;;;;6271798;22;20010;-85
2022/11/28 03:27:20;;;;;;;14.88;8.45;;;;;;;;;;6217217;22;20024;-81
2022/11/28 03:33:10;;;;;;;13.60;6.97;;;;;;;;;;6273928;23;20006;-82
2022/11/28 03:36:04;;;;;;;13.55;8.35;;;;;;;;;;6272941;22;20019;-83
2022/11/28 03:58:27;;;;;;;12.63;6.95;;;;;;;;;;6274809;22;20007;-83
2022/11/28 04:01:37;;;;;;;12.60;6.57;;;;;;;;;;6272764;22;19992;-84
2022/11/28 04:04:40;;;;;;;11.73;6.93;;;6.20;99.90;;;;;;6244157;22;19988;-83
2022/11/28 04:07:55;;;;;;;11.38;6.95;;;;;;;;;;6274719;22;19996;-83
2022/11/28 04:13:38;;;;;;;12.68;6.57;;;;;;;;;;6123647;23;20046;-82
2022/11/28 04:16:36;;;;;;;13.50;6.90;;;;;;;;;;6239857;23;19988;-84
2022/11/28 04:19:34;;;;;;;15.13;6.57;;;;;;;;;;6239829;23;20067;-83
2022/11/28 04:22:28;;;;;;;11.32;6.53;;;;;;;;;;6265379;23;20345;-83
2022/11/28 04:25:48;;;;;;;11.32;5.85;;;;;;;;;;6266710;23;20305;-81
2022/11/28 04:28:44;;;;;;;12.50;6.35;;;;;;;;;;6205801;23;19993;-81
2022/11/28 04:36:44;;;;;;;11.30;5.70;;;;;;;;;;6216006;22;20021;-82
2022/11/28 04:40:01;;;;;;;10.30;6.07;;;6.30;99.90;;;;;;6210833;23;20136;-82
2022/11/28 04:42:57;;;;;;;15.55;6.45;;;;;;;;;;6181308;23;20025;-82
2022/11/28 04:46:26;;;;;;;;;;;;;;;;;;;;;
2022/11/28 04:49:01;;;;;;;10.00;5.53;;;;;;;;;;6203927;23;20341;-82
2022/11/28 04:51:44;;;;;;;10.85;5.95;;;;;;;;;;6087377;23;20007;-80
2022/11/28 04:54:47;;;;;;;10.43;5.70;;;6.50;99.90;;;;;;6123308;23;20003;-80
2022/11/28 04:57:45;;;;;;;10.50;6.03;;;;;;;;;;6209323;23;20012;-83
2022/11/28 05:00:23;;;;;;;8.90;5.70;;;;;;;;;;6184565;23;19986;-82
2022/11/28 05:03:08;;;;;;;8.82;5.50;;;;;;;;;;6175034;23;20001;-82
2022/11/28 05:05:59;;;;;;;12.48;5.90;;;;;;;;;;6209806;23;19997;-82
2022/11/28 05:11:58;;;;;;;10.63;6.43;;;;;;;;;;6207884;23;20032;-81
2022/11/28 05:14:24;;;;;;;10.57;5.95;;;;;;;;;;6183039;23;20008;-81
2022/11/28 05:17:28;;;;;;;11.88;6.30;;;;;;;;;;6206369;23;20004;-80
2022/11/28 05:54:56;;;;;;;9.77;5.38;;;6.90;99.90;;;;;;6207558;23;20035;-82
2022/11/28 05:58:10;;;;;;;11.77;5.70;;;;;;;;;;6171375;23;20036;-81
2022/11/28 06:20:44;;;;;;;11.38;5.60;;;;;;;;;;6180934;23;20084;-83
2022/11/28 06:23:33;;;;;;;8.65;5.10;;;;;;;;;;6134826;23;19985;-81
2022/11/28 06:26:13;;;;;;;11.45;5.40;;;;;;;;;;6155797;23;19989;-82
2022/11/28 06:29:00;;;;;;;11.07;5.07;;;;;;;;;;6121175;23;19991;-80
2022/11/28 06:32:14;;;;;;;8.52;4.90;;;;;;;;;;6120725;23;20006;-81
2022/11/28 06:34:41;;;;;;;10.60;4.93;;;;;;;;;;6097615;23;20018;-82
2022/11/28 06:37:10;;;;;;;10.63;5.10;;;;;;;;;;6125241;23;20103;-83
2022/11/28 06:39:53;;;;;;;12.10;5.95;;;;;;;;;;6157005;23;20049;-83
2022/11/28 06:45:23;;;;;;;12.52;5.20;;;;;;;;;;6184106;23;20017;-85
2022/11/28 06:58:11;;;;;;;14.23;6.28;;;;;;;;;;6183229;23;20025;-84
2022/11/28 07:00:58;;;;;;;12.77;5.55;;;7.30;99.90;;;;;;6156203;23;20009;-82
2022/11/28 07:03:30;;;;;;;11.98;5.30;;;;;;;;;;6181986;23;20001;-83
2022/11/28 07:06:05;;;;;;;15.18;6.03;;;;;;;;;;6182283;23;20006;-85
2022/11/28 07:08:43;;;;;;;13.13;6.00;;;;;;;;;;6135905;23;20012;-83
2022/11/28 07:11:49;;;;;;;13.63;5.82;;;;;;;;;;6148896;23;20013;-84
2022/11/28 07:17:22;;;;;;;14.27;5.85;;;;;;;;;;6180815;23;20076;-84
2022/11/28 07:20:07;;;;;;;14.02;6.15;;;;;;;;;;6155176;23;20041;-82
2022/11/28 07:22:52;;;;;;;13.05;6.07;;;;;;;;;;6158070;23;20061;-82
2022/11/28 07:25:18;;;;;;;13.02;5.63;;;;;;;;;;6156056;23;20008;-83
2022/11/28 07:27:44;;;;;;;13.52;5.90;;;;;;;;;;6133398;23;20013;-84
2022/11/28 07:30:13;;;;;;;9.95;5.55;;;;;;;;;;6183601;23;20002;-85
2022/11/28 07:32:47;;;;;;;12.02;5.70;;;;;;;;;;6178501;23;20016;-82
2022/11/28 07:35:16;;;;;;;12.82;5.53;;;;;;;;;;6178452;23;20009;-82
2022/11/28 07:38:08;;;;;;;13.38;5.15;;;;;;;;;;6146928;23;20138;-82
2022/11/28 07:40:34;;;;;;;11.77;5.00;;;;;;;;;;6122812;23;20445;-82
2022/11/28 07:43:01;;;;;;;11.45;5.63;;;;;;;;;;6130625;23;20248;-81
2022/11/28 07:45:33;;;;;;;11.48;5.68;;;;;;;;;;6131573;23;20017;-81
2022/11/28 07:48:25;;;;;;;12.18;5.30;;;;;;;;;;6181144;23;19994;-83
2022/11/28 07:50:54;;;;;;;9.43;5.47;;;;;;;;;;6172459;23;20029;-82
2022/11/28 07:53:53;;;;;;;10.40;5.32;;;;;;;;;;6170687;23;20012;-82
2022/11/28 07:56:38;;;;;;;10.13;5.10;;;;;;;;;;6148189;23;20024;-81
2022/11/28 07:59:40;;;;;;;15.23;5.05;;;;;;;;;;6134903;23;20037;-83
2022/11/28 08:02:59;;;;;;;8.20;4.80;;;;;;;;;;6175378;23;20029;-83
2022/11/28 08:14:59;;;;;;;9.07;5.13;;;;;;;;;;6089884;23;20164;-82
2022/11/28 08:17:27;;;;;;;13.93;6.78;;;;;;;;;;6153977;23;20069;-82
2022/11/28 08:19:53;;;;;;;14.10;6.05;;;;;;;;;;6154018;23;19986;-84
2022/11/28 08:22:20;;;;;;;14.18;5.82;;;;;;;;;;6128521;23;19989;-83
2022/11/28 08:24:48;;;;;;;12.75;6.05;;;;;;;;;;6121196;23;20010;-83
2022/11/28 11:39:18;;;;;;;10.25;5.10;;;9.60;99.90;;;;;;6202945;22;20029;-82
2022/11/28 11:41:52;;;;;;;10.40;5.47;;;;;;;;;;6198600;22;20008;-82
2022/11/28 11:45:08;;;;;;;10.95;5.60;;;;;;;;;;6257961;22;19989;-82
2022/11/28 11:50:55;;;;;;;7.32;5.03;;;;;;;;;;6261987;22;20078;-83
2022/11/28 11:53:59;;;;;;;8.82;4.47;;;;;;;;;;6265272;22;20051;-82
2022/11/28 11:56:50;;;;;;;8.73;4.63;;;;;;;;;;6256445;22;19998;-81
2022/11/28 11:59:45;;;;;;;10.57;4.85;;;;;;;;;;6235343;22;20023;-82
2022/11/28 12:05:50;;;;;;;7.35;4.47;;;;;;;;;;6260840;23;20030;-82
2022/11/28 12:08:57;;;;;;;8.20;4.20;;;;;;;;;;6257686;23;20001;-82
2022/11/28 12:15:43;;;;;;;14.00;4.90;;;9.70;99.90;;;;;;6259376;23;20051;-82
2022/11/28 12:18:53;;;;;;;9.18;4.22;;;;;;;;;;6115633;23;20010;-82
2022/11/28 12:22:12;;;;;;;10.05;7.03;;;9.70;99.90;;;;;;6119457;23;20109;-82
2022/11/28 12:25:42;;;;;;;6.22;3.92;;;9.70;99.90;;;;;;6190702;23;20004;-81
2022/11/28 12:29:10;;;;;;;9.77;4.07;;;9.80;99.90;;;;;;6249649;23;20088;-80
2022/11/28 12:32:21;;;;;;;12.32;4.93;;;;;;;;;;6235124;23;20029;-82
2022/11/28 12:35:56;;;;;;;11.10;4.38;;;;;;;;;;6101222;23;20014;-82
2022/11/28 12:43:10;;;;;;;9.68;4.88;;;9.80;99.90;;;;;;5994510;23;20056;-81
2022/11/28 12:46:38;;;;;;;9.63;4.82;;;;;;;;;;6021157;23;20380;-82
2022/11/28 12:49:43;;;;;;;7.78;4.63;;;;;;;;;;5949948;24;20005;-83
2022/11/28 12:56:42;;;;;;;7.80;4.63;;;9.80;99.90;;;;;;5997457;23;20091;-82
2022/11/28 13:03:26;;;;;;;9.75;4.95;;;;;;;;;;6082060;23;20006;-82
2022/11/28 13:06:37;;;;;;;10.65;5.00;;;;;;;;;;6023295;23;20039;-82
2022/11/28 13:09:55;;;;;;;10.98;4.68;;;;;;;;;;6015561;23;20011;-82
2022/11/28 13:26:11;;;;;;;11.05;4.95;;;;;;;;;;6021696;23;20553;-83
2022/11/28 13:29:37;;;;;;;7.75;4.10;;;9.80;99.90;;;;;;6019167;23;20047;-82
2022/11/28 13:39:56;;;;;;;10.20;5.50;;;9.80;99.90;;;;;;6118908;23;20062;-84
2022/11/28 15:50:50;;;;;;;7.80;3.60;;;;;;;;;;6235633;22;20031;-80
2022/11/28 15:53:17;;;;;;;7.45;4.10;;;;;;;;;;6249668;23;20015;-80
2022/11/28 15:55:44;;;;;;;5.97;4.38;;;;;;;;;;6249356;23;20019;-81
2022/11/28 15:58:11;;;;;;;6.55;3.80;;;;;;;;;;6222796;23;20430;-81
2022/11/28 16:00:39;;;;;;;7.90;4.25;;;;;;;;;;6249115;23;20043;-81
2022/11/28 16:03:05;;;;;;;9.85;3.92;;;;;;;;;;6246963;23;20046;-81
2022/11/28 16:05:31;;;;;;;7.53;3.95;;;;;;;;;;6246190;23;19996;-80
2022/11/28 16:07:57;;;;;;;10.05;3.70;;;;;;;;;;6222181;23;20004;-81
2022/11/28 16:10:27;;;;;;;7.95;4.50;;;;;;;;;;6251097;23;20008;-81
2022/11/28 16:13:17;;;;;;;9.02;4.88;;;;;;;;;;6255273;23;20031;-81
2022/11/28 16:15:48;;;;;;;9.13;3.80;;;;;;;;;;6228504;23;20062;-81
2022/11/28 16:18:15;;;;;;;7.28;3.42;;;;;;;;;;6201910;23;20009;-82
2022/11/28 16:20:46;;;;;;;7.70;3.88;;;;;;;;;;6227875;23;20001;-81
2022/11/28 16:23:28;;;;;;;5.97;3.85;;;;;;;;;;6224135;23;20328;-82
2022/11/28 16:26:01;;;;;;;6.80;3.88;;;;;;;;;;6224279;23;20004;-81
2022/11/28 16:28:30;;;;;;;6.43;3.80;;;;;;;;;;6227316;23;20028;-81
2022/11/28 16:30:56;;;;;;;8.48;4.38;;;;;;;;;;6227285;23;20018;-81
2022/11/28 16:33:38;;;;;;;7.10;4.35;;;;;;;;;;6253253;23;20038;-81
2022/11/28 16:36:08;;;;;;;7.53;4.13;;;;;;;;;;6225844;23;20205;-81
2022/11/28 16:38:34;;;;;;;;;;;9.80;99.90;;;;;;6228775;23;20031;-81
2022/11/28 16:41:01;;;;;;;8.65;4.82;;;;;;;;;;6225784;23;19903;-81
2022/11/28 16:43:31;;;;;;;10.20;5.53;;;;;;;;;;6252886;23;20000;-81
2022/11/28 16:45:58;;;;;;;11.60;6.60;;;;;;;;;;6227495;23;20011;-81
2022/11/28 16:48:27;;;;;;;11.52;6.50;;;;;;;;;;6224716;23;20004;-81
2022/11/28 16:51:13;;;;;;;12.30;6.80;;;;;;;;;;6225683;23;20012;-81
2022/11/28 16:53:39;;;;;;;11.27;6.30;;;;;;;;;;6226767;23;20004;-81
2022/11/28 16:56:22;;;;;;;14.48;6.53;;;;;;;;;;6230481;23;20035;-81
2022/11/28 16:58:48;;;;;;;13.70;7.00;;;;;;;;;;6227423;23;20004;-81
2022/11/28 17:02:04;;;;;;;13.50;7.13;;;9.70;99.90;;;;;;6253894;23;20020;-82
2022/11/28 17:04:31;;;;;;;11.48;6.60;;;;;;;;;;6222102;23;20012;-81
2022/11/28 17:06:58;;;;;;;13.48;7.38;;;;;;;;;;6231550;22;19997;-81
2022/11/28 17:09:24;;;;;;;12.77;7.05;;;;;;;;;;6269534;22;19992;-80
2022/11/28 17:11:55;;;;;;;16.95;8.07;;;;;;;;;;6270611;22;19999;-80
2022/11/28 17:14:21;;;;;;;14.02;6.88;;;;;;;;;;6269991;22;20055;-81
2022/11/28 17:16:47;;;;;;;12.30;7.35;;;;;;;;;;6253151;23;20004;-81
2022/11/28 17:19:14;;;;;;;13.30;7.68;;;;;;;;;;6251333;23;20007;-81
2022/11/28 17:21:41;;;;;;;13.15;7.43;;;;;;;;;;6229772;23;20385;-81
2022/11/28 17:24:18;;;;;;;13.18;6.90;;;;;;;;;;6233336;23;20086;-82
2022/11/28 17:26:45;;;;;;;9.80;6.47;;;;;;;;;;6261194;23;20048;-81
2022/11/28 17:29:12;;;;;;;12.23;7.22;;;;;;;;;;6261779;23;20007;-82
2022/11/28 17:31:41;;;;;;;12.00;7.07;;;;;;;;;;6261645;23;20008;-81
2022/11/28 17:34:18;;;;;;;15.10;8.63;;;;;;;;;;6242414;22;20008;-80
2022/11/28 17:36:45;;;;;;;9.85;6.97;;;;;;;;;;6229644;23;20015;-81
2022/11/28 17:39:12;;;;;;;11.95;7.57;;;;;;;;;;6258198;23;20023;-81
2022/11/28 17:41:38;;;;;;;12.98;6.82;;;;;;;;;;6243295;22;20019;-81
2022/11/28 17:44:05;;;;;;;11.35;7.07;;;;;;;;;;6245141;22;19985;-82
2022/11/28 17:46:34;;;;;;;12.20;7.15;;;;;;;;;;6271334;22;20023;-82
2022/11/28 17:49:04;;;;;;;11.30;6.93;;;;;;;;;;6272077;22;20014;-82
2022/11/28 17:51:51;;;;;;;12.77;7.03;;;;;;;;;;6271282;22;20023;-82
2022/11/28 17:54:42;;;;;;;11.30;6.63;;;;;;;;;;6246943;22;20000;-82
2022/11/28 17:57:14;;;;;;;11.40;6.60;;;;;;;;;;6271177;22;20043;-82
2022/11/28 18:02:17;;;;;;;16.45;7.55;;;;;;;;;;6246246;22;20442;-88
2022/11/28 18:04:43;;;;;;;11.07;6.95;;;;;;;;;;6232246;23;20074;-86
2022/11/28 18:07:09;;;;;;;17.75;9.48;;;;;;;;;;6234378;23;20035;-88
2022/11/28 18:09:35;;;;;;;17.13;7.55;;;;;;;;;;6259256;23;20000;-87
2022/11/28 18:12:01;;;;;;;14.93;7.43;;;;;;;;;;6235429;23;20007;-90
2022/11/28 18:14:27;;;;;;;12.07;7.30;;;;;;;;;;6261068;23;20000;-90
2022/11/28 18:16:53;;;;;;;13.73;7.78;;;;;;;;;;6237162;23;20007;-89
2022/11/28 18:19:19;;;;;;;13.02;7.65;;;;;;;;;;6236894;23;20008;-89
2022/11/28 18:21:45;;;;;;;13.57;8.35;;;;;;;;;;6230236;23;20087;-89
2022/11/28 18:24:11;;;;;;;16.20;7.97;;;;;;;;;;6229002;23;20584;-87
2022/11/28 18:26:37;;;;;;;13.63;8.23;;;;;;;;;;6231581;23;20031;-87
2022/11/28 18:29:03;;;;;;;11.23;7.53;;;;;;;;;;6259599;23;20031;-90
2022/11/28 18:31:29;;;;;;;15.43;7.80;;;;;;;;;;6234644;23;20206;-86
2022/11/28 18:33:59;;;;;;;14.18;8.05;;;;;;;;;;6260976;23;20008;-89
2022/11/28 18:36:26;;;;;;;10.80;7.90;;;;;;;;;;6235296;23;20018;-88
2022/11/28 18:38:56;;;;;;;13.57;8.00;;;;;;;;;;6236904;23;20034;-88
2022/11/28 18:41:22;;;;;;;17.73;7.63;;;;;;;;;;6235428;23;20011;-88
2022/11/28 18:43:48;;;;;;;14.32;7.50;;;;;;;;;;6235119;23;20301;-88
2022/11/28 18:46:15;;;;;;;12.75;7.35;;;;;;;;;;6237178;23;20067;-86
2022/11/28 18:48:45;;;;;;;12.70;7.78;;;;;;;;;;6210761;23;20022;-87
2022/11/28 18:51:16;;;;;;;14.02;7.68;;;;;;;;;;6237002;23;20034;-88
2022/11/28 18:53:42;;;;;;;9.90;7.03;;;;;;;;;;6261861;23;20008;-88
2022/11/28 18:56:09;;;;;;;15.35;8.40;;;;;;;;;;6237607;23;20388;-88
2022/11/28 18:58:39;;;;;;;12.90;8.13;;;;;;;;;;6264449;23;20084;-87
2022/11/28 19:01:14;;;;;;;15.15;8.32;;;;;;;;;;6233974;23;20032;-88
2022/11/28 19:03:41;;;;;;;14.35;7.63;;;;;;;;;;6234239;23;19988;-90
2022/11/28 19:06:08;;;;;;;11.23;7.03;;;;;;;;;;6236118;23;20015;-88
2022/11/28 19:08:34;;;;;;;15.85;8.93;;;;;;;;;;6231930;23;20095;-88
2022/11/28 19:11:02;;;;;;;13.88;8.05;;;;;;;;;;6257301;23;20046;-87
2022/11/28 19:13:28;;;;;;;13.77;8.27;;;;;;;;;;6233481;23;20015;-90
2022/11/28 19:15:54;;;;;;;15.98;8.07;;;;;;;;;;6258467;22;20008;-88
2022/11/28 19:18:20;;;;;;;15.35;7.97;;;;;;;;;;6256588;23;20008;-88
2022/11/28 19:20:46;;;;;;;14.55;7.95;;;;;;;;;;6231804;23;20296;-88
2022/11/28 19:24:10;;;;;;;;;;;;;;;;;;;;;
2022/11/28 19:26:44;;;;;;;15.15;8.02;;;9.20;99.90;;;;;;6256938;22;20024;-89
2022/11/28 19:29:16;;;;;;;15.02;9.38;;;;;;;;;;6253597;23;20012;-85
2022/11/28 19:32:19;;;;;;;15.95;9.38;;;9.10;99.90;;;;;;6258877;23;20450;-84
2022/11/28 19:35:11;;;;;;;15.77;8.98;;;9.10;99.90;;;;;;6260663;23;20379;-87
2022/11/28 19:37:41;;;;;;;16.95;9.77;;;;;;;;;;6258682;23;20024;-85
2022/11/28 19:41:06;;;;;;;13.57;9.52;;;9.10;99.90;;;;;;6197062;23;20004;-86
2022/11/28 19:43:40;;;;;;;15.55;9.85;;;9.10;99.90;;;;;;6254062;23;20384;-86
2022/11/28 19:46:07;;;;;;;18.33;10.23;;;;;;;;;;6233236;23;20000;-87
2022/11/28 19:48:34;;;;;;;16.02;9.75;;;9.10;99.90;;;;;;6233889;23;20008;-87
2022/11/28 19:51:02;;;;;;;19.13;9.98;;;;;;;;;;6234419;23;20004;-87
2022/11/28 19:53:28;;;;;;;13.90;9.80;;;;;;;;;;6232462;23;20004;-88
2022/11/28 19:55:55;;;;;;;15.73;10.20;;;;;;;;;;6232958;23;20000;-89
2022/11/28 19:58:22;;;;;;;21.13;11.48;;;;;;;;;;6232160;23;20411;-83
2022/11/28 20:00:48;;;;;;;19.80;11.88;;;;;;;;;;6229829;23;20000;-84
2022/11/28 20:03:14;;;;;;;23.67;12.77;;;;;;;;;;6231653;23;20007;-86
2022/11/28 20:05:40;;;;;;;25.60;14.65;;;;;;;;;;6259507;23;19996;-87
2022/11/28 20:08:06;;;;;;;25.02;14.40;;;;;;;;;;6231598;23;20094;-88
2022/11/28 20:10:37;;;;;;;27.95;14.57;;;9.10;99.90;;;;;;6231642;23;20018;-87
2022/11/28 20:13:04;;;;;;;24.15;14.90;;;;;;;;;;6258321;23;20008;-86
2022/11/28 20:15:30;;;;;;;24.85;14.82;;;;;;;;;;6217424;22;20044;-79
2022/11/28 20:17:56;;;;;;;25.75;15.55;;;;;;;;;;6223215;23;20451;-82
2022/11/28 20:20:22;;;;;;;25.77;15.77;;;;;;;;;;6221630;23;20070;-82
2022/11/28 20:22:48;;;;;;;29.40;15.75;;;;;;;;;;6201321;23;20496;-82
2022/11/28 20:25:14;;;;;;;25.77;14.77;;;;;;;;;;6224169;23;20004;-81
2022/11/28 20:27:40;;;;;;;28.55;15.63;;;;;;;;;;6222608;23;20001;-79
2022/11/28 20:30:07;;;;;;;26.35;16.23;;;;;;;;;;6222654;23;20035;-81
2022/11/28 20:32:33;;;;;;;25.65;14.88;;;;;;;;;;6220267;23;20000;-82
2022/11/28 20:35:00;;;;;;;23.73;13.98;;;;;;;;;;6220081;23;20015;-81
2022/11/28 20:37:26;;;;;;;22.90;15.10;;;;;;;;;;6222700;23;20012;-80
2022/11/28 20:39:52;;;;;;;20.67;13.20;;;;;;;;;;6220672;23;20009;-82
2022/11/28 20:42:18;;;;;;;21.88;13.70;;;;;;;;;;6222803;23;20009;-80
2022/11/28 20:44:44;;;;;;;22.80;13.38;;;;;;;;;;6221107;23;20197;-84
2022/11/28 20:47:11;;;;;;;21.13;13.82;;;;;;;;;;6221254;23;20395;-81
2022/11/28 20:49:37;;;;;;;21.35;13.65;;;;;;;;;;6217853;23;20004;-83
2022/11/28 20:52:03;;;;;;;25.00;13.95;;;;;;;;;;6218306;23;20020;-82
2022/11/28 20:54:29;;;;;;;21.40;13.40;;;;;;;;;;6219516;23;20088;-80
2022/11/28 20:56:55;;;;;;;19.23;12.80;;;;;;;;;;6219501;23;20008;-80
2022/11/28 20:59:22;;;;;;;19.42;12.27;;;;;;;;;;6223705;23;20012;-82
2022/11/28 21:01:50;;;;;;;17.08;12.20;;;;;;;;;;6219255;23;20079;-81
2022/11/28 21:04:17;;;;;;;21.48;11.95;;;;;;;;;;6225060;23;20021;-81
2022/11/28 21:06:45;;;;;;;21.00;12.63;;;;;;;;;;6217639;23;20289;-81
2022/11/28 21:09:11;;;;;;;17.25;11.70;;;;;;;;;;6220539;23;20058;-85
2022/11/28 21:11:38;;;;;;;18.50;13.13;;;;;;;;;;6221668;23;20008;-83
2022/11/28 21:14:04;;;;;;;20.20;12.85;;;;;;;;;;6221923;23;20001;-80
2022/11/28 21:16:31;;;;;;;18.98;13.10;;;;;;;;;;6221370;23;20047;-80
2022/11/28 21:19:01;;;;;;;20.35;13.32;;;9.00;99.90;;;;;;6224063;23;20009;-83
2022/11/28 21:21:28;;;;;;;17.75;11.50;;;;;;;;;;6220550;23;20075;-83
2022/11/28 21:23:58;;;;;;;23.30;13.00;;;;;;;;;;6220981;23;19997;-81
2022/11/28 21:26:25;;;;;;;18.85;13.35;;;;;;;;;;6221354;23;19996;-80
2022/11/28 21:28:52;;;;;;;17.80;12.23;;;;;;;;;;6219417;23;20016;-82
2022/11/28 21:31:19;;;;;;;21.88;13.63;;;;;;;;;;6220891;23;20078;-82
2022/11/28 21:33:49;;;;;;;23.65;14.15;;;;;;;;;;6220883;23;20051;-81
2022/11/28 21:36:15;;;;;;;17.53;11.50;;;;;;;;;;6222289;23;20008;-82
2022/11/28 21:38:41;;;;;;;19.35;12.13;;;;;;;;;;6223439;23;20008;-80
2022/11/28 21:41:07;;;;;;;21.70;12.50;;;;;;;;;;6224507;23;20001;-83
2022/11/28 21:43:33;;;;;;;19.17;11.68;;;;;;;;;;6223183;23;20092;-82
2022/11/28 21:46:01;;;;;;;16.70;11.38;;;;;;;;;;6222836;23;20004;-82
2022/11/28 21:48:28;;;;;;;17.85;11.13;;;;;;;;;;6223196;23;20035;-81
2022/11/28 21:50:54;;;;;;;17.60;11.07;;;;;;;;;;6224567;23;20024;-82
2022/11/28 21:53:20;;;;;;;18.55;11.50;;;;;;;;;;6225663;23;20044;-81
2022/11/28 21:55:46;;;;;;;15.93;10.45;;;;;;;;;;6225153;23;20026;-82
2022/11/28 21:58:12;;;;;;;13.75;9.23;;;;;;;;;;6201209;23;20008;-82
2022/11/28 22:00:38;;;;;;;15.55;10.52;;;;;;;;;;6221479;23;20044;-82
2022/11/28 22:03:05;;;;;;;13.18;8.63;;;;;;;;;;6226138;23;20003;-81
2022/11/28 22:05:32;;;;;;;11.48;8.20;;;;;;;;;;6224024;23;20022;-80
2022/11/28 22:07:58;;;;;;;13.43;8.13;;;;;;;;;;6224965;23;20009;-81
2022/11/28 22:10:24;;;;;;;11.93;7.30;;;;;;;;;;6228823;23;20083;-81
2022/11/28 22:12:51;;;;;;;12.68;8.02;;;;;;;;;;6226363;23;20037;-82
2022/11/28 22:15:17;;;;;;;11.95;7.50;;;;;;;;;;6231936;23;20019;-83
2022/11/28 22:17:43;;;;;;;10.65;7.05;;;;;;;;;;6232686;23;19997;-83
2022/11/28 22:20:09;;;;;;;12.63;8.48;;;;;;;;;;6231912;23;20056;-83
2022/11/28 22:22:35;;;;;;;13.10;7.65;;;;;;;;;;6231108;23;20012;-83
2022/11/28 22:25:01;;;;;;;12.23;7.15;;;;;;;;;;6232205;23;20004;-83
2022/11/28 22:27:30;;;;;;;11.55;7.80;;;;;;;;;;6229422;23;20007;-83
2022/11/28 22:29:56;;;;;;;12.20;7.47;;;;;;;;;;6199429;23;20011;-81
2022/11/28 22:32:22;;;;;;;11.48;6.80;;;;;;;;;;6191106;23;20000;-81
2022/11/28 22:34:48;;;;;;;12.57;7.32;;;;;;;;;;6217745;23;20024;-83
2022/11/28 22:37:14;;;;;;;9.73;6.47;;;;;;;;;;6195109;23;20005;-83
2022/11/28 22:39:41;;;;;;;10.65;6.65;;;;;;;;;;6222231;23;20123;-82
2022/11/28 22:42:07;;;;;;;9.70;6.93;;;;;;;;;;6221696;23;20001;-81
2022/11/28 22:44:33;;;;;;;11.45;6.40;;;;;;;;;;6221884;23;20008;-82
2022/11/28 22:46:59;;;;;;;10.82;6.80;;;;;;;;;;6195562;23;20032;-81
2022/11/28 22:49:25;;;;;;;9.85;6.45;;;;;;;;;;6195492;23;20009;-81
2022/11/28 22:51:51;;;;;;;11.70;6.50;;;;;;;;;;6194903;23;20035;-80
2022/11/28 22:54:17;;;;;;;10.23;6.20;;;;;;;;;;6221328;23;20008;-82
2022/11/28 22:56:43;;;;;;;9.68;6.10;;;;;;;;;;6195762;23;20012;-85
2022/11/28 22:59:13;;;;;;;9.65;5.82;;;;;;;;;;6194483;23;20077;-81
2022/11/28 23:01:40;;;;;;;7.85;5.75;;;;;;;;;;6222396;23;20001;-81
2022/11/28 23:04:06;;;;;;;7.93;5.38;;;;;;;;;;6173220;23;20008;-81
2022/11/28 23:06:33;;;;;;;9.07;5.93;;;;;;;;;;6197267;23;20072;-81
2022/11/28 23:09:00;;;;;;;8.10;5.03;;;;;;;;;;6196711;23;20091;-82
2022/11/28 23:11:27;;;;;;;7.18;4.43;;;;;;;;;;6221069;23;20024;-79
2022/11/28 23:13:53;;;;;;;6.60;4.65;;;;;;;;;;6196178;23;20370;-82
2022/11/28 23:16:23;;;;;;;6.80;4.80;;;;;;;;;;6221017;23;20013;-83
2022/11/28 23:18:51;;;;;;;11.13;7.00;;;;;;;;;;6222050;23;20071;-80
2022/11/28 23:21:18;;;;;;;6.53;4.30;;;;;;;;;;6196690;23;20008;-80
2022/11/28 23:23:44;;;;;;;7.22;4.35;;;;;;;;;;6196263;23;20001;-81
2022/11/28 23:26:15;;;;;;;5.40;3.60;;;;;;;;;;6172522;23;20012;-81
2022/11/28 23:28:41;;;;;;;5.50;3.67;;;;;;;;;;6196540;23;20452;-80
2022/11/28 23:31:09;;;;;;;6.45;4.20;;;;;;;;;;6193337;23;20005;-83
2022/11/28 23:33:35;;;;;;;6.68;4.47;;;;;;;;;;6193502;23;20087;-81
2022/11/28 23:36:10;;;;;;;7.20;4.50;;;;;;;;;;6194878;23;20448;-81
2022/11/28 23:38:36;;;;;;;5.65;4.25;;;;;;;;;;6222420;23;20120;-80
2022/11/28 23:41:02;;;;;;;7.25;4.25;;;;;;;;;;6221708;23;20001;-80
2022/11/28 23:43:28;;;;;;;6.82;4.47;;;;;;;;;;6196469;23;20007;-80
2022/11/28 23:45:54;;;;;;;7.20;4.13;;;;;;;;;;6220409;23;20000;-80
2022/11/28 23:48:20;;;;;;;7.82;5.38;;;;;;;;;;6194831;23;20491;-81
2022/11/28 23:50:47;;;;;;;9.15;5.10;;;;;;;;;;6195385;23;20004;-81
2022/11/28 23:53:13;;;;;;;6.38;4.28;;;;;;;;;;6220658;23;20012;-80
2022/11/28 23:55:39;;;;;;;9.13;5.00;;;;;;;;;;6194033;23;20020;-81
2022/11/28 23:58:05;;;;;;;15.27;9.23;;;;;;;;;;6194586;23;20064;-81
